Time;durP1;ratioP1;P1;durP2;ratioP2;P2;SDS_P1;SDS_P2;PMS_P1;PMS_P2;Temp;Humidity;BMP_temperature;BMP_pressure;BME280_temperature;BME280_humidity;BME280_pressure;Samples;Min_cycle;Max_cycle;Signal;HPM_P1;HPM_P2
2022/03/15 00:01:59;;;;;;;17.05;10.43;;;;;;;-4.03;79.31;101511.50;10496738;28;20139;-74
2022/03/15 00:07:00;;;;;;;44.33;16.25;;;;;;;-4.23;79.39;101499.94;10495924;28;20572;-74
2022/03/15 00:12:05;;;;;;;40.95;15.77;;;;;;;-3.55;79.73;101627.75;10495558;28;20060;-73
2022/03/15 00:17:07;;;;;;;27.20;14.00;;;;;;;-3.52;80.17;101632.84;10495220;28;20048;-73
2022/03/15 00:22:08;;;;;;;40.00;16.10;;;;;;;-4.00;80.31;101568.50;10495221;28;20110;-74
2022/03/15 00:27:12;;;;;;;36.00;15.32;;;;;;;-3.92;79.22;101600.25;10495367;28;20102;-73
2022/03/15 00:32:17;;;;;;;76.00;25.92;;;;;;;-3.98;79.67;101629.88;10493981;28;20041;-75
2022/03/15 00:37:19;;;;;;;61.88;19.83;;;;;;;-4.07;79.71;101632.69;10495724;28;20514;-73
2022/03/15 00:42:19;;;;;;;47.45;16.20;;;;;;;-4.02;80.49;101622.19;10495374;28;20043;-73
2022/03/15 00:47:20;;;;;;;28.55;13.50;;;;;;;-4.29;80.21;101583.16;10494472;28;20148;-74
2022/03/15 00:52:21;;;;;;;73.85;26.00;;;;;;;-5.27;79.31;101476.91;10495184;28;20048;-73
2022/03/15 00:57:22;;;;;;;93.90;31.23;;;;;;;-4.47;80.46;101617.38;10495099;28;20454;-74
2022/03/15 01:02:23;;;;;;;48.53;19.60;;;;;;;-4.32;80.86;101622.16;10494055;28;20040;-74
2022/03/15 01:07:24;;;;;;;59.55;22.40;;;;;;;-4.33;80.15;101622.22;10496199;28;20041;-74
2022/03/15 01:12:26;;;;;;;64.78;24.67;;;;;;;-4.56;79.62;101615.03;10502265;28;20037;-74
2022/03/15 01:17:26;;;;;;;53.70;24.67;;;;;;;-4.74;79.87;101622.38;10502326;28;20044;-74
2022/03/15 01:22:27;;;;;;;53.25;22.30;;;;;;;-5.65;80.07;101451.97;10501733;28;20036;-73
2022/03/15 01:27:28;;;;;;;36.35;18.67;;;;;;;-5.37;80.44;101493.56;10500049;28;20051;-73
2022/03/15 01:32:29;;;;;;;46.67;18.98;;;;;;;-5.49;80.04;101480.94;10501512;28;20043;-73
2022/03/15 01:37:30;;;;;;;70.82;25.17;;;;;;;-4.94;79.86;101604.72;10501170;28;20105;-74
2022/03/15 01:42:31;;;;;;;53.22;18.90;;;;;;;-5.62;80.49;101477.81;10501575;28;20032;-73
2022/03/15 01:47:32;;;;;;;37.05;15.85;;;;;;;-5.20;80.46;101557.91;10501015;28;20060;-73
2022/03/15 01:52:33;;;;;;;25.60;13.60;;;;;;;-5.68;80.32;101471.03;10500080;28;20036;-73
2022/03/15 01:57:34;;;;;;;42.92;16.92;;;;;;;-4.89;80.21;101612.41;10499935;28;20067;-74
2022/03/15 02:02:35;;;;;;;40.95;15.93;;;;;;;-5.28;79.71;101565.84;10498827;28;20123;-73
2022/03/15 02:07:36;;;;;;;38.83;14.93;;;;;;;-6.10;80.31;101439.25;10499476;28;20040;-73
2022/03/15 02:12:38;;;;;;;29.08;13.48;;;;;;;-5.23;80.76;101570.94;10499419;28;20097;-73
2022/03/15 02:17:39;;;;;;;28.67;13.45;;;;;;;-5.18;81.27;101564.72;10500150;28;20047;-73
2022/03/15 02:22:40;;;;;;;23.20;13.32;;;;;;;-5.13;81.61;101534.41;10499713;28;20072;-73
2022/03/15 02:27:41;;;;;;;21.88;11.93;;;;;;;-5.58;81.04;101450.94;10498502;28;20090;-74
2022/03/15 02:32:42;;;;;;;20.80;12.45;;;;;;;-4.66;81.54;101604.91;10498362;28;20127;-73
2022/03/15 02:37:43;;;;;;;24.08;13.25;;;;;;;-4.56;81.39;101597.72;10492286;28;20132;-73
2022/03/15 02:42:44;;;;;;;20.45;12.30;;;;;;;-4.52;81.28;101596.75;10465809;28;20079;-74
2022/03/15 02:47:47;;;;;;;20.10;12.02;;;;;;;-4.71;81.32;101551.47;10456091;28;20087;-73
2022/03/15 02:52:48;;;;;;;26.10;13.35;;;;;;;-4.44;80.65;101606.91;10484766;28;20055;-73
2022/03/15 02:57:49;;;;;;;28.85;12.73;;;;;;;-4.50;80.60;101602.75;10486411;28;20048;-73
2022/03/15 03:02:50;;;;;;;29.83;13.18;;;;;;;-5.48;80.34;101459.31;10487106;28;20044;-73
2022/03/15 03:07:51;;;;;;;34.72;14.25;;;;;;;-4.74;80.75;101580.06;10489299;28;20044;-73
2022/03/15 03:12:52;;;;;;;21.75;12.63;;;;;;;-4.77;80.42;101588.78;10481321;28;20415;-73
2022/03/15 03:17:53;;;;;;;20.65;12.07;;;;;;;-5.52;80.30;101472.34;10486681;28;20040;-73
2022/03/15 03:22:54;;;;;;;28.17;14.27;;;;;;;-5.17;80.38;101529.34;10495787;28;20046;-73
2022/03/15 03:27:55;;;;;;;45.58;16.10;;;;;;;-5.48;80.43;101477.44;10496743;28;20123;-74
2022/03/15 03:32:56;;;;;;;28.48;14.45;;;;;;;-4.70;80.79;101592.88;10496264;28;20043;-73
2022/03/15 03:37:57;;;;;;;21.10;12.80;;;;;;;-4.31;80.86;101577.16;10495853;28;20037;-74
2022/03/15 03:42:58;;;;;;;27.92;13.13;;;;;;;-3.70;80.63;101592.72;10476730;28;20059;-73
2022/03/15 03:47:58;;;;;;;21.77;13.15;;;;;;;-3.30;79.88;101583.66;10476247;28;20056;-75
2022/03/15 03:52:59;;;;;;;24.90;14.30;;;;;;;-2.96;79.50;101588.63;10454819;28;20135;-72
2022/03/15 03:58:00;;;;;;;21.38;13.82;;;;;;;-4.03;80.01;101384.34;10454035;28;20044;-74
2022/03/15 04:03:01;;;;;;;31.08;14.50;;;;;;;-2.88;79.88;101607.41;10453725;28;20048;-74
2022/03/15 04:08:03;;;;;;;25.67;13.80;;;;;;;-2.81;79.94;101621.94;10454818;28;20558;-75
2022/03/15 04:13:04;;;;;;;26.50;13.85;;;;;;;-2.71;78.94;101606.00;10455830;28;20390;-73
2022/03/15 04:18:06;;;;;;;26.60;14.18;;;;;;;-3.28;78.13;101467.53;10453775;28;20098;-76
2022/03/15 04:23:10;;;;;;;21.42;13.32;;;;;;;-2.27;77.56;101601.88;10453196;28;20052;-73
2022/03/15 04:28:12;;;;;;;25.97;14.30;;;;;;;-1.71;76.79;101585.88;10454577;28;20039;-74
2022/03/15 04:33:12;;;;;;;23.45;14.68;;;;;;;-1.18;75.82;101590.72;10453671;28;20037;-78
2022/03/15 04:38:14;;;;;;;22.40;14.65;;;;;;;-0.83;75.62;101548.47;10453132;28;20040;-74
2022/03/15 04:43:15;;;;;;;23.75;14.50;;;;;;;-0.47;74.53;101553.84;10473740;28;20404;-76
2022/03/15 04:48:16;;;;;;;27.60;15.73;;;;;;;-0.78;74.50;101503.00;10465250;28;20063;-74
2022/03/15 04:53:18;;;;;;;26.50;16.13;;;;;;;-0.52;74.27;101574.91;10461137;28;20049;-74
2022/03/15 04:58:20;;;;;;;23.73;15.23;;;;;;;-0.59;74.35;101557.00;10457785;28;20500;-75
2022/03/15 05:03:20;;;;;;;28.42;15.55;;;;;;;-0.98;73.45;101450.84;10457766;28;20055;-75
2022/03/15 05:08:21;;;;;;;22.70;14.90;;;;;;;-0.32;73.33;101519.22;10461010;28;20052;-75
2022/03/15 05:13:23;;;;;;;22.73;14.75;;;;;;;-0.47;72.34;101447.66;10460200;28;20048;-76
2022/03/15 05:18:24;;;;;;;25.98;17.15;;;;;;;0.50;72.27;101572.94;10461097;28;20076;-76
2022/03/15 05:23:25;;;;;;;23.98;15.65;;;;;;;0.62;71.97;101523.50;10460946;28;20412;-76
2022/03/15 05:28:25;;;;;;;24.92;16.63;;;;;;;0.94;70.51;101491.44;10460208;28;20040;-76
2022/03/15 05:33:28;;;;;;;26.63;15.75;;;;;;;0.76;69.55;101426.03;10460534;28;20051;-77
2022/03/15 05:38:29;;;;;;;24.42;15.80;;;;;;;1.59;69.21;101531.69;10459376;28;20041;-76
2022/03/15 05:43:30;;;;;;;25.67;15.25;;;;;;;1.83;66.60;101535.59;10461519;28;20555;-77
2022/03/15 05:48:33;;;;;;;23.48;13.43;;;;;;;1.44;65.80;101402.41;10458398;28;20151;-76
2022/03/15 05:53:34;;;;;;;28.55;14.77;;;;;;;1.96;65.26;101465.03;10457778;28;20155;-76
2022/03/15 05:58:35;;;;;;;25.52;12.57;;;;;;;2.53;63.09;101492.44;10458354;28;20124;-75
2022/03/15 06:03:36;;;;;;;19.80;12.23;;;;;;;2.07;61.92;101396.28;10459842;28;20044;-77
2022/03/15 06:08:37;;;;;;;21.27;10.75;;;;;;;2.80;60.61;101497.88;10457813;28;20041;-76
2022/03/15 06:13:38;;;;;;;18.67;11.60;;;;;;;1.88;60.26;101309.16;10458470;28;20060;-77
2022/03/15 06:18:39;;;;;;;19.85;12.45;;;;;;;2.63;59.09;101365.06;10458355;28;20040;-76
2022/03/15 06:23:39;;;;;;;17.77;10.70;;;;;;;3.16;57.89;101427.41;10458832;28;20048;-76
2022/03/15 06:28:40;;;;;;;19.60;11.48;;;;;;;2.78;56.86;101342.28;10457190;28;20045;-77
2022/03/15 06:33:47;;;;;;;22.77;11.23;;;;;;;3.57;57.40;101473.09;10457684;28;20044;-76
2022/03/15 06:38:49;;;;;;;16.70;9.15;;;;;;;3.77;55.60;101433.28;10457499;28;20048;-77
2022/03/15 06:43:50;;;;;;;14.80;8.80;;;;;;;4.17;52.37;101464.06;10457286;28;20124;-76
2022/03/15 06:48:51;;;;;;;18.02;8.05;;;;;;;4.15;50.93;101442.28;10456799;28;20522;-77
2022/03/15 06:53:52;;;;;;;14.52;8.68;;;;;;;4.48;51.44;101447.09;10456852;28;20086;-77
2022/03/15 06:58:53;;;;;;;16.83;7.57;;;;;;;4.50;50.26;101437.34;10456808;28;20124;-77
2022/03/15 07:03:54;;;;;;;14.82;8.68;;;;;;;4.31;49.14;101456.97;10457039;28;20465;-77
2022/03/15 07:08:55;;;;;;;15.57;8.23;;;;;;;4.34;49.11;101440.16;10456228;28;20076;-77
2022/03/15 07:13:56;;;;;;;14.30;9.02;;;;;;;4.49;50.31;101433.88;10455467;28;20044;-76
2022/03/15 07:18:57;;;;;;;15.88;9.45;;;;;;;5.00;49.69;101433.09;10455995;28;20080;-76
2022/03/15 07:23:59;;;;;;;15.05;9.70;;;;;;;5.23;50.13;101420.94;10455704;28;20075;-75
2022/03/15 07:29:01;;;;;;;13.40;7.40;;;;;;;5.40;46.88;101404.78;10455228;28;20396;-78
2022/03/15 07:34:02;;;;;;;15.27;7.57;;;;;;;4.88;45.66;101334.72;10455767;28;20094;-77
2022/03/15 07:39:04;;;;;;;13.43;7.20;;;;;;;5.25;45.74;101400.59;10455191;28;20041;-76
2022/03/15 07:44:08;;;;;;;13.73;6.38;;;;;;;5.69;44.79;101381.63;10455121;28;20675;-77
2022/03/15 07:49:09;;;;;;;10.20;6.28;;;;;;;5.66;42.97;101366.03;10455483;28;20611;-76
2022/03/15 07:54:10;;;;;;;13.38;6.93;;;;;;;5.77;43.76;101348.59;10454379;28;20139;-76
2022/03/15 07:59:11;;;;;;;12.70;6.38;;;;;;;5.90;41.63;101330.91;10454132;28;20091;-77
2022/03/15 08:04:12;;;;;;;10.88;5.85;;;;;;;5.92;41.53;101364.16;10454491;28;20044;-76
2022/03/15 08:09:16;;;;;;;12.75;6.38;;;;;;;6.20;41.69;101358.66;10453848;28;20080;-76
2022/03/15 08:14:17;;;;;;;10.90;6.60;;;;;;;5.90;41.66;101308.03;10454472;28;20075;-77
2022/03/15 08:19:18;;;;;;;14.65;7.18;;;;;;;6.24;41.45;101325.78;10458691;28;20071;-76
2022/03/15 08:24:21;;;;;;;12.38;7.80;;;;;;;6.63;41.95;101333.28;10462609;28;20055;-76
2022/03/15 08:29:21;;;;;;;13.88;7.85;;;;;;;6.88;42.18;101315.56;10462550;28;20485;-76
2022/03/15 08:34:23;;;;;;;17.02;9.30;;;;;;;6.51;43.10;101207.53;10462715;28;20136;-75
2022/03/15 08:39:24;;;;;;;15.80;10.00;;;;;;;6.90;43.99;101244.94;10462384;28;20040;-76
2022/03/15 08:44:24;;;;;;;18.55;11.25;;;;;;;7.62;44.12;101305.22;10461265;28;20048;-76
2022/03/15 08:49:25;;;;;;;16.80;10.88;;;;;;;7.85;43.61;101297.22;10461981;28;20507;-75
2022/03/15 08:54:27;;;;;;;16.42;9.95;;;;;;;7.75;43.99;101290.03;10461541;28;20568;-75
2022/03/15 08:59:28;;;;;;;14.43;9.95;;;;;;;7.93;43.43;101292.13;10461644;28;20566;-76
2022/03/15 09:04:29;;;;;;;16.13;10.93;;;;;;;7.21;42.49;101140.28;10461711;28;20103;-75
2022/03/15 09:09:30;;;;;;;12.18;8.65;;;;;;;7.46;40.32;101226.31;10460939;28;20052;-75
2022/03/15 09:14:32;;;;;;;17.60;9.82;;;;;;;6.52;41.16;101145.88;10460851;28;20073;-75
2022/03/15 09:19:33;;;;;;;13.10;8.15;;;;;;;7.29;41.33;101254.13;10460877;28;20043;-75
2022/03/15 09:24:36;;;;;;;13.57;7.60;;;;;;;7.28;39.56;101239.22;10460624;28;20076;-75
2022/03/15 09:29:37;;;;;;;14.63;8.57;;;;;;;7.62;39.61;101225.03;10460408;28;20049;-75
2022/03/15 09:34:38;;;;;;;14.35;8.70;;;;;;;7.65;38.82;101116.38;10459483;28;20486;-75
2022/03/15 09:39:39;;;;;;;13.57;7.75;;;;;;;7.61;38.18;101107.03;10459264;28;20041;-76
2022/03/15 09:44:41;;;;;;;12.35;8.27;;;;;;;8.33;38.32;101206.69;10459967;28;20120;-76
2022/03/15 09:49:44;;;;;;;13.52;8.48;;;;;;;8.22;37.35;101179.31;10459811;28;20075;-76
2022/03/15 09:54:46;;;;;;;18.25;8.70;;;;;;;7.51;37.40;101054.09;10458798;28;20483;-75
2022/03/15 09:59:50;;;;;;;10.52;6.57;;;;;;;8.20;35.68;101176.00;10458540;28;20117;-75
2022/03/15 10:04:51;;;;;;;12.00;7.37;;;;;;;7.93;36.27;101150.09;10459098;28;20119;-75
2022/03/15 10:09:52;;;;;;;12.00;6.55;;;;;;;8.38;36.24;101172.72;10458796;28;20143;-77
2022/03/15 10:14:53;;;;;;;9.25;6.03;;;;;;;8.49;36.19;101169.16;10457945;28;20489;-75
2022/03/15 10:19:55;;;;;;;11.43;6.57;;;;;;;8.82;35.96;101136.19;10457157;28;20508;-75
2022/03/15 10:24:57;;;;;;;8.85;5.93;;;;;;;8.97;35.41;101148.06;10457711;28;20037;-75
2022/03/15 10:29:59;;;;;;;8.25;4.45;;;;;;;8.82;35.16;101131.72;10457639;28;20049;-75
2022/03/15 10:35:08;;;;;;;7.72;4.40;;;;;;;7.17;35.04;100908.97;10457679;28;20044;-75
2022/03/15 10:40:09;;;;;;;10.45;4.85;;;;;;;7.55;34.76;100995.53;10456378;28;20512;-75
2022/03/15 10:45:19;;;;;;;13.68;5.38;;;;;;;8.51;35.02;101133.63;10457797;28;20029;-74
2022/03/15 10:50:22;;;;;;;143.90;59.47;;;;;;;8.48;35.21;101133.91;10457087;28;20045;-76
2022/03/15 10:55:28;;;;;;;45.33;23.63;;;;;;;8.35;34.18;101045.94;10457060;28;20053;-74
2022/03/15 11:00:38;;;;;;;134.38;57.88;;;;;;;8.11;34.60;100994.19;10457450;28;20033;-76
2022/03/15 11:05:40;;;;;;;45.88;22.55;;;;;;;8.91;34.29;101109.75;10457285;28;20045;-75
2022/03/15 11:10:47;;;;;;;98.93;45.00;;;;;;;9.05;35.07;101103.16;10454411;28;20063;-75
2022/03/15 11:15:50;;;;;;;13.32;7.30;;;;;;;8.89;35.10;101085.19;10456144;28;20136;-75
2022/03/15 11:20:52;;;;;;;141.48;26.15;;;;;;;9.07;35.78;101103.88;10456024;28;20041;-74
2022/03/15 11:26:04;;;;;;;40.67;16.27;;;;;;;8.83;36.13;101074.31;10455381;28;20052;-76
2022/03/15 11:31:06;;;;;;;74.82;31.75;;;;;;;8.43;37.05;101117.56;10455138;28;20066;-75
2022/03/15 11:36:07;;;;;;;61.45;24.38;;;;;;;7.95;37.42;101023.78;10455787;28;20124;-75
2022/03/15 11:41:10;;;;;;;38.13;14.13;;;;;;;7.75;38.75;101052.00;10455684;28;20153;-74
2022/03/15 11:46:20;;;;;;;14.68;8.70;;;;;;;8.34;38.34;101084.78;10454682;28;20053;-74
2022/03/15 11:51:37;;;;;;;21.13;8.82;;;;;;;8.24;39.16;101105.94;10454379;28;20139;-74
2022/03/15 11:57:01;;;;;;;115.55;48.35;;;;;;;7.30;40.07;100988.88;10454859;28;20127;-74
2022/03/15 12:02:02;;;;;;;;;;;;;;;7.80;40.17;101101.84;10454483;28;20043;-74
2022/03/15 12:07:03;;;;;;;265.05;106.63;;;;;;;7.55;40.97;101064.28;10453837;28;20299;-75
2022/03/15 12:12:09;;;;;;;52.95;23.70;;;;;;;7.92;40.48;101076.13;10454629;28;20489;-74
2022/03/15 12:17:12;;;;;;;47.90;18.30;;;;;;;7.64;41.95;101112.88;10455261;28;20037;-74
2022/03/15 12:22:34;;;;;;;12.93;8.15;;;;;;;7.26;42.69;101109.00;10454251;28;20397;-74
2022/03/15 12:27:43;;;;;;;14.90;8.45;;;;;;;6.31;43.33;100979.53;10448644;28;20087;-76
2022/03/15 12:32:55;;;;;;;15.57;9.02;;;;;;;6.91;44.07;101119.88;10474302;28;20551;-74
2022/03/15 12:38:06;;;;;;;13.30;8.50;;;;;;;6.76;44.48;101113.16;10471659;28;20123;-74
2022/03/15 12:43:07;;;;;;;47.60;22.80;;;;;;;6.35;45.61;101112.91;10452913;28;20123;-74
2022/03/15 12:48:08;;;;;;;27.23;12.57;;;;;;;5.84;46.51;101071.16;10453943;28;20407;-73
2022/03/15 12:53:12;;;;;;;19.50;9.73;;;;;;;6.06;47.68;101131.00;10460404;28;20135;-74
2022/03/15 12:58:14;;;;;;;39.25;9.43;;;;;;;5.77;48.86;101127.94;10488695;28;20062;-73
2022/03/15 13:03:17;;;;;;;15.10;9.80;;;;;;;5.38;50.15;101121.28;10495275;28;20124;-73
2022/03/15 13:08:20;;;;;;;16.42;9.82;;;;;;;5.11;52.30;101139.97;10491906;28;20045;-73
2022/03/15 13:13:24;;;;;;;15.38;9.52;;;;;;;4.32;54.26;101052.72;10493640;28;20131;-73
2022/03/15 13:18:26;;;;;;;21.83;9.23;;;;;;;4.57;56.34;101105.25;10501978;28;20467;-73
2022/03/15 13:23:36;;;;;;;18.40;9.77;;;;;;;4.40;57.16;101139.84;10501954;28;20041;-73
2022/03/15 13:28:44;;;;;;;11.38;7.93;;;;;;;3.57;60.97;101056.22;10500906;28;20049;-74
2022/03/15 13:33:56;;;;;;;11.80;7.35;;;;;;;2.39;62.78;100925.03;10501444;28;20040;-74
2022/03/15 13:39:00;;;;;;;37.80;17.05;;;;;;;3.81;62.24;101171.09;10499676;28;20477;-74
2022/03/15 13:44:02;;;;;;;28.42;14.07;;;;;;;3.70;62.85;101174.44;10485455;28;20040;-75
2022/03/15 13:49:03;;;;;;;15.30;8.20;;;;;;;3.46;63.88;101157.69;10467899;28;20403;-75
2022/03/15 13:54:10;;;;;;;35.58;15.15;;;;;;;1.92;66.51;100978.75;10499020;28;20079;-74
2022/03/15 13:59:13;;;;;;;20.60;11.77;;;;;;;2.15;68.39;101062.94;10495611;28;20037;-74
2022/03/15 14:04:16;;;;;;;38.75;18.55;;;;;;;2.71;70.32;101203.63;10498288;28;20040;-74
2022/03/15 14:09:33;;;;;;;16.67;8.80;;;;;;;2.62;71.77;101206.81;10495265;28;20090;-73
2022/03/15 14:14:50;;;;;;;14.80;8.00;;;;;;;2.60;71.26;101200.81;10493519;28;20840;-74
2022/03/15 14:19:55;;;;;;;14.63;8.77;;;;;;;2.47;71.84;101189.41;10496991;28;20056;-74
2022/03/15 14:25:00;;;;;;;12.75;8.05;;;;;;;2.01;71.93;101124.09;10497565;28;20041;-75
2022/03/15 14:30:02;;;;;;;26.70;14.50;;;;;;;2.27;73.67;101214.22;10490341;28;20040;-76
2022/03/15 14:35:07;;;;;;;13.43;8.07;;;;;;;2.17;74.48;101203.47;10492629;28;20135;-74
2022/03/15 14:40:12;;;;;;;11.60;7.80;;;;;;;2.06;75.09;101208.50;10495082;28;20033;-76
2022/03/15 14:45:14;;;;;;;20.48;9.73;;;;;;;1.88;75.39;101212.22;10496618;28;20041;-75
2022/03/15 14:50:15;;;;;;;13.60;9.27;;;;;;;1.36;75.84;101138.41;10495038;28;20063;-74
2022/03/15 14:55:17;;;;;;;17.60;9.55;;;;;;;1.85;76.50;101225.50;10496419;28;20075;-75
2022/03/15 15:00:18;;;;;;;15.52;8.70;;;;;;;1.20;77.22;101145.47;10495754;28;20040;-75
2022/03/15 15:05:19;;;;;;;14.65;8.05;;;;;;;1.33;78.69;101204.03;10495308;28;20098;-74
2022/03/15 15:10:21;;;;;;;16.02;9.23;;;;;;;1.32;78.87;101209.38;10484537;28;20458;-75
2022/03/15 15:15:24;;;;;;;14.23;9.38;;;;;;;1.33;79.44;101221.50;10473983;28;20043;-75
2022/03/15 15:20:26;;;;;;;13.55;9.13;;;;;;;1.29;80.23;101220.84;10488264;28;20055;-73
2022/03/15 15:25:27;;;;;;;14.40;9.45;;;;;;;1.32;79.70;101232.91;10485367;28;20082;-74
2022/03/15 15:30:28;;;;;;;13.40;8.77;;;;;;;0.91;81.75;101188.97;10482886;28;20430;-75
2022/03/15 15:35:29;;;;;;;15.75;9.35;;;;;;;0.45;80.94;101106.06;10482615;28;20048;-77
2022/03/15 15:40:34;;;;;;;14.65;9.65;;;;;;;1.17;80.69;101229.38;10483937;28;20497;-76
2022/03/15 15:45:36;;;;;;;23.40;11.65;;;;;;;1.19;82.50;101240.59;10483638;28;20094;-74
2022/03/15 15:50:40;;;;;;;16.75;10.88;;;;;;;1.24;82.76;101227.25;10480240;28;20044;-74
2022/03/15 15:55:44;;;;;;;18.95;10.65;;;;;;;1.02;82.61;101202.31;10471787;28;20044;-74
2022/03/15 16:00:46;;;;;;;18.63;10.43;;;;;;;1.31;83.06;101260.00;10482351;28;20055;-73
2022/03/15 16:05:46;;;;;;;37.22;16.00;;;;;;;0.94;82.99;101198.44;10482182;28;20071;-75
2022/03/15 16:10:47;;;;;;;24.40;12.30;;;;;;;1.05;84.68;101211.75;10484705;28;20048;-74
2022/03/15 16:15:48;;;;;;;21.40;13.27;;;;;;;0.54;83.44;101123.03;10490388;28;20518;-75
2022/03/15 16:20:50;;;;;;;23.23;11.73;;;;;;;1.40;83.99;101269.13;10492590;28;20123;-73
2022/03/15 16:25:52;;;;;;;26.40;12.98;;;;;;;1.06;83.24;101224.75;10493325;28;20550;-74
2022/03/15 16:30:54;;;;;;;18.92;11.38;;;;;;;1.37;84.82;101272.75;10494977;28;20439;-74
2022/03/15 16:35:55;;;;;;;27.63;14.00;;;;;;;1.33;85.50;101272.09;10491472;28;20048;-74
2022/03/15 16:40:56;;;;;;;98.45;34.97;;;;;;;1.13;86.77;101246.16;10498561;28;20404;-73
2022/03/15 16:45:57;;;;;;;59.13;24.95;;;;;;;1.36;87.48;101278.94;10500783;28;20091;-74
2022/03/15 16:50:58;;;;;;;48.83;21.77;;;;;;;1.40;86.00;101269.97;10472758;28;20045;-74
2022/03/15 16:56:01;;;;;;;26.35;14.75;;;;;;;1.18;86.28;101238.91;10461555;28;20512;-74
2022/03/15 17:01:03;;;;;;;88.20;30.55;;;;;;;1.33;86.08;101264.22;10469888;28;20504;-74
2022/03/15 17:06:03;;;;;;;32.05;16.15;;;;;;;0.53;86.74;101128.31;10463573;28;20041;-74
2022/03/15 17:11:07;;;;;;;31.85;17.67;;;;;;;0.73;86.19;101148.16;10486127;28;20053;-75
2022/03/15 17:16:15;;;;;;;88.68;32.53;;;;;;;1.55;86.39;101279.56;10477862;28;20036;-75
2022/03/15 17:21:16;;;;;;;99.65;38.47;;;;;;;0.91;86.87;101165.44;10474924;28;20048;-74
2022/03/15 17:26:27;;;;;;;36.65;18.30;;;;;;;0.89;86.09;101155.03;10494979;28;20396;-74
2022/03/15 17:31:37;;;;;;;45.15;22.45;;;;;;;0.80;86.58;101139.84;10501707;28;20044;-74
2022/03/15 17:36:38;;;;;;;65.90;25.67;;;;;;;1.48;86.33;101253.84;10498784;28;20066;-75
2022/03/15 17:41:47;;;;;;;98.13;37.03;;;;;;;1.58;86.87;101275.94;10494608;28;20036;-74
2022/03/15 17:46:53;;;;;;;29.15;16.38;;;;;;;1.61;85.98;101281.00;10461252;28;20412;-74
2022/03/15 17:51:54;;;;;;;46.03;21.67;;;;;;;1.44;85.93;101242.69;10457538;28;20044;-74
2022/03/15 17:56:58;;;;;;;21.85;14.18;;;;;;;0.20;86.10;101035.16;10485194;28;20040;-74
2022/03/15 18:01:59;;;;;;;29.90;16.67;;;;;;;1.74;86.59;101295.09;10465070;28;20036;-74
2022/03/15 18:07:02;;;;;;;22.05;13.70;;;;;;;1.60;86.36;101266.22;10458910;28;20040;-73
2022/03/15 18:12:03;;;;;;;22.30;15.23;;;;;;;1.83;86.94;101270.97;10458146;28;20045;-75
2022/03/15 18:17:04;;;;;;;18.95;14.00;;;;;;;1.89;86.90;101263.72;10458569;28;20039;-74
2022/03/15 18:22:06;;;;;;;22.13;14.57;;;;;;;1.05;86.84;101120.19;10458201;28;20140;-73
2022/03/15 18:27:09;;;;;;;17.98;13.23;;;;;;;1.57;86.90;101200.94;10458811;28;20390;-74
2022/03/15 18:32:10;;;;;;;21.50;14.32;;;;;;;1.97;86.64;101256.22;10458364;28;20131;-74
2022/03/15 18:37:11;;;;;;;23.55;13.82;;;;;;;1.96;86.16;101257.16;10457107;28;20041;-73
2022/03/15 18:42:12;;;;;;;59.97;25.10;;;;;;;1.14;85.68;101133.56;10456906;28;20040;-74
2022/03/15 18:47:13;;;;;;;44.95;22.45;;;;;;;1.83;86.02;101255.25;10456710;28;20094;-74
2022/03/15 18:52:15;;;;;;;28.70;15.45;;;;;;;1.89;86.59;101233.09;10465902;28;20053;-74
2022/03/15 18:57:15;;;;;;;21.50;14.35;;;;;;;1.70;86.30;101195.81;10457360;28;20045;-74
2022/03/15 19:02:17;;;;;;;21.95;14.35;;;;;;;1.66;86.50;101195.16;10460067;28;20047;-73
2022/03/15 19:07:22;;;;;;;21.10;14.43;;;;;;;1.01;86.65;101089.88;10497929;28;20121;-73
2022/03/15 19:12:24;;;;;;;21.75;14.82;;;;;;;1.65;86.50;101196.09;10498081;28;20211;-74
2022/03/15 19:17:25;;;;;;;24.85;15.23;;;;;;;1.85;86.39;101222.88;10496903;28;20059;-74
2022/03/15 19:22:26;;;;;;;29.48;16.95;;;;;;;1.39;86.23;101129.53;10496266;28;20052;-74
2022/03/15 19:27:27;;;;;;;28.70;17.30;;;;;;;1.83;nan;101199.41;10497351;28;20500;-74
2022/03/15 19:32:28;;;;;;;26.58;17.17;;;;;;;1.06;85.77;101074.75;10486271;28;20041;-74
2022/03/15 19:37:28;;;;;;;28.10;17.38;;;;;;;1.04;85.93;101080.06;10460664;28;20045;-74
2022/03/15 19:42:31;;;;;;;21.88;15.07;;;;;;;0.91;85.77;101052.94;10463474;28;20040;-73
2022/03/15 19:47:36;;;;;;;19.98;13.60;;;;;;;0.90;86.36;101057.34;10496583;28;20080;-74
2022/03/15 19:52:39;;;;;;;25.70;15.27;;;;;;;1.70;86.27;101177.47;10495548;28;20044;-74
2022/03/15 19:57:43;;;;;;;20.42;13.10;;;;;;;1.70;86.54;101175.69;10496302;28;20040;-74
2022/03/15 20:02:48;;;;;;;18.02;12.57;;;;;;;0.85;86.27;101037.59;10495394;28;20056;-74
2022/03/15 20:07:53;;;;;;;18.55;12.32;;;;;;;1.51;85.91;101131.41;10495377;28;20036;-74
2022/03/15 20:13:01;;;;;;;16.25;11.43;;;;;;;1.68;86.17;101161.03;10495614;28;20048;-74
2022/03/15 20:18:06;;;;;;;14.35;10.43;;;;;;;1.50;85.74;101134.16;10495506;28;20060;-74
2022/03/15 20:23:12;;;;;;;13.95;10.27;;;;;;;1.56;nan;101142.47;10496278;28;20102;-74
2022/03/15 20:28:12;;;;;;;14.98;9.70;;;;;;;1.51;85.14;101110.47;10491387;28;20358;-74
2022/03/15 20:33:13;;;;;;;12.98;8.90;;;;;;;1.45;86.06;101107.38;10462433;28;20041;-74
2022/03/15 20:38:16;;;;;;;15.35;9.30;;;;;;;1.48;85.93;101094.94;10453741;28;20041;-74
2022/03/15 20:48:41;;;;;;;12.48;8.63;;;;;;;1.53;86.20;101094.69;10453941;28;20520;-74
2022/03/15 20:53:43;;;;;;;14.50;9.18;;;;;;;1.53;86.03;101092.06;10453708;28;20033;-74
2022/03/15 20:58:43;;;;;;;13.13;8.80;;;;;;;1.10;86.12;101024.75;10452822;28;20456;-74
2022/03/15 21:03:45;;;;;;;12.75;8.27;;;;;;;0.59;86.21;100924.03;10453568;28;20037;-74
2022/03/15 21:08:45;;;;;;;13.68;8.98;;;;;;;1.51;86.69;101062.50;10453010;28;20041;-74
2022/03/15 21:13:47;;;;;;;13.93;9.45;;;;;;;1.40;86.11;101054.44;10453560;28;20052;-74
2022/03/15 21:18:48;;;;;;;12.75;8.27;;;;;;;1.45;87.36;101063.72;10453064;28;20033;-74
2022/03/15 21:23:50;;;;;;;13.35;8.18;;;;;;;1.23;86.76;101024.06;10453455;28;20041;-74
2022/03/15 21:28:51;;;;;;;11.88;8.18;;;;;;;1.15;87.14;101011.41;10460270;28;20465;-74
2022/03/15 21:33:51;;;;;;;12.13;8.20;;;;;;;1.39;86.80;101043.13;10460671;28;20061;-74
2022/03/15 21:38:57;;;;;;;12.43;8.68;;;;;;;1.37;86.44;101040.59;10459808;28;20036;-74
2022/03/15 21:44:01;;;;;;;16.67;9.45;;;;;;;-0.22;87.12;100783.28;10459753;28;20104;-74
2022/03/15 21:49:02;;;;;;;;;;;;;;;1.39;84.75;101039.69;10460366;28;20060;-72
2022/03/15 21:54:05;;;;;;;13.07;9.38;;;;;;;0.10;86.45;100836.28;10459935;28;19921;-73
2022/03/15 21:59:07;;;;;;;13.50;9.02;;;;;;;0.19;86.52;100856.66;10459307;28;20048;-74
2022/03/15 22:04:08;;;;;;;13.75;9.32;;;;;;;0.86;87.35;100982.56;10459610;28;20069;-74
2022/03/15 22:09:09;;;;;;;14.90;10.07;;;;;;;1.06;87.20;101025.03;10458920;28;20065;-74
2022/03/15 22:14:10;;;;;;;15.25;9.93;;;;;;;0.76;87.98;100968.34;10459079;28;20091;-75
2022/03/15 22:19:11;;;;;;;14.20;9.90;;;;;;;0.87;87.20;100986.06;10459093;28;20048;-74
2022/03/15 22:24:11;;;;;;;16.85;9.77;;;;;;;1.01;87.67;101006.16;10458921;28;20097;-74
2022/03/15 22:29:13;;;;;;;13.73;9.65;;;;;;;0.82;87.88;100985.47;10458130;28;20390;-74
2022/03/15 23:16:34;;;;;;;14.40;8.65;;;;;;;1.00;88.15;100921.59;10455610;28;20440;-74
2022/03/15 23:32:22;;;;;;;15.23;9.02;;;;;;;1.23;88.40;100949.00;10455456;28;20037;-75
2022/03/15 23:37:22;;;;;;;19.05;10.70;;;;;;;0.53;87.83;100832.91;10454991;28;20560;-75
2022/03/15 23:42:23;;;;;;;18.55;10.55;;;;;;;1.23;88.22;100943.75;10455934;28;20128;-74
2022/03/15 23:47:24;;;;;;;17.58;11.35;;;;;;;0.67;88.23;100828.53;10455512;28;20060;-74
2022/03/15 23:52:25;;;;;;;17.33;11.15;;;;;;;1.33;88.71;100923.09;10455011;28;20071;-74
2022/03/15 23:57:26;;;;;;;23.38;11.73;;;;;;;1.06;87.96;100870.69;10455498;28;20098;-74
